Time;durP1;ratioP1;P1;durP2;ratioP2;P2;SDS_P1;SDS_P2;PMS_P1;PMS_P2;Temp;Humidity;BMP_temperature;BMP_pressure;BME280_temperature;BME280_humidity;BME280_pressure;Samples;Min_cycle;Max_cycle;Signal;HPM_P1;HPM_P2
2021/01/25 00:00:47;;;;;;;5.50;3.20;;;-1.50;99.90;;;;;;5071692;28;20435;-72
2021/01/25 00:03:14;;;;;;;4.20;3.23;;;-1.50;99.90;;;;;;5071053;28;20930;-72
2021/01/25 00:05:41;;;;;;;3.67;2.67;;;-1.40;99.90;;;;;;5071664;28;20458;-72
2021/01/25 00:08:08;;;;;;;2.47;2.23;;;-1.40;99.90;;;;;;5071518;28;20517;-72
2021/01/25 00:10:35;;;;;;;2.87;2.67;;;-1.40;99.90;;;;;;5071341;28;20803;-72
2021/01/25 00:13:01;;;;;;;3.20;2.90;;;-1.40;99.90;;;;;;5071549;28;20449;-71
2021/01/25 00:15:31;;;;;;;3.33;3.03;;;-1.40;99.90;;;;;;5070760;28;20478;-72
2021/01/25 00:17:58;;;;;;;2.97;2.67;;;-1.40;99.90;;;;;;5071464;28;20441;-72
2021/01/25 00:20:24;;;;;;;4.73;2.87;;;-1.30;99.90;;;;;;5071004;28;20450;-72
2021/01/25 00:22:51;;;;;;;2.70;2.47;;;-1.20;99.90;;;;;;5071331;28;20422;-72
2021/01/25 00:25:18;;;;;;;2.20;2.00;;;-1.30;99.90;;;;;;5071180;28;20446;-72
2021/01/25 00:27:45;;;;;;;3.50;3.20;;;-1.30;99.90;;;;;;5071462;28;20842;-72
2021/01/25 00:30:16;;;;;;;2.33;2.13;;;-1.20;99.90;;;;;;5071344;28;20426;-72
2021/01/25 00:32:43;;;;;;;3.50;3.20;;;-1.20;99.90;;;;;;5071177;28;20424;-71
2021/01/25 00:35:11;;;;;;;2.97;2.67;;;-1.20;99.90;;;;;;5070480;28;20559;-72
2021/01/25 00:37:38;;;;;;;2.80;2.60;;;-1.20;99.90;;;;;;5071217;28;20422;-72
2021/01/25 00:40:07;;;;;;;2.93;2.60;;;-1.30;99.90;;;;;;5071106;28;20434;-72
2021/01/25 00:42:34;;;;;;;2.77;2.50;;;-1.40;99.90;;;;;;5070893;28;20449;-72
2021/01/25 00:45:02;;;;;;;5.07;3.30;;;-1.30;99.90;;;;;;5071164;28;20470;-72
2021/01/25 00:47:28;;;;;;;4.57;2.80;;;-1.40;99.90;;;;;;5070981;28;20429;-72
2021/01/25 00:49:55;;;;;;;3.33;2.60;;;-1.30;99.90;;;;;;5071057;28;20441;-72
2021/01/25 00:52:21;;;;;;;3.00;2.70;;;-1.30;99.90;;;;;;5070884;28;20965;-72
2021/01/25 00:54:48;;;;;;;3.83;2.63;;;-1.30;99.90;;;;;;5070567;28;20445;-72
2021/01/25 00:57:15;;;;;;;3.00;2.57;;;-1.20;99.90;;;;;;5070878;28;20430;-72
2021/01/25 00:59:44;;;;;;;3.37;2.30;;;-1.30;99.90;;;;;;5070920;28;20818;-72
2021/01/25 01:02:11;;;;;;;3.37;3.07;;;-1.30;99.90;;;;;;5070616;28;20486;-72
2021/01/25 01:04:38;;;;;;;4.10;3.70;;;-1.30;99.90;;;;;;5070387;28;20454;-72
2021/01/25 01:07:05;;;;;;;4.80;3.27;;;-1.40;99.90;;;;;;5070019;28;20434;-72
2021/01/25 01:09:35;;;;;;;3.63;3.33;;;-1.30;99.90;;;;;;5070630;28;20449;-72
2021/01/25 01:12:02;;;;;;;2.97;2.73;;;-1.30;99.90;;;;;;5070926;28;20441;-71
2021/01/25 01:14:29;;;;;;;3.87;3.13;;;-1.40;99.90;;;;;;5070673;28;20456;-72
2021/01/25 01:16:56;;;;;;;2.73;2.53;;;-1.40;99.90;;;;;;5070525;28;20482;-72
2021/01/25 01:19:23;;;;;;;3.57;3.27;;;-1.40;99.90;;;;;;5057122;28;20484;-71
2021/01/25 01:21:50;;;;;;;3.67;3.33;;;-1.40;99.90;;;;;;5050539;28;20438;-72
2021/01/25 01:24:16;;;;;;;3.60;3.30;;;-1.40;99.90;;;;;;5050760;28;20442;-72
2021/01/25 01:26:43;;;;;;;3.73;3.20;;;-1.40;99.90;;;;;;5050769;28;20435;-72
2021/01/25 01:29:10;;;;;;;3.47;2.90;;;-1.50;99.90;;;;;;5053589;28;20435;-72
2021/01/25 01:31:36;;;;;;;3.27;2.90;;;-1.50;99.90;;;;;;5054393;28;20422;-71
2021/01/25 01:34:05;;;;;;;3.90;3.10;;;-1.60;99.90;;;;;;5063064;28;20461;-71
2021/01/25 01:36:31;;;;;;;4.17;3.70;;;-1.70;99.90;;;;;;5073912;28;20904;-72
2021/01/25 01:38:58;;;;;;;6.97;3.80;;;-1.70;99.90;;;;;;5074647;28;20426;-71
2021/01/25 01:41:25;;;;;;;4.80;3.70;;;-1.70;99.90;;;;;;5074147;28;20425;-72
2021/01/25 01:43:52;;;;;;;4.27;3.20;;;-1.80;99.90;;;;;;5074238;28;20495;-72
2021/01/25 01:46:19;;;;;;;3.70;3.30;;;-1.80;99.90;;;;;;5073699;28;20444;-71
2021/01/25 01:48:45;;;;;;;3.80;3.27;;;-1.80;99.90;;;;;;5074070;28;20426;-72
2021/01/25 01:51:13;;;;;;;4.53;3.50;;;-1.80;99.90;;;;;;5074331;28;20429;-72
2021/01/25 01:53:40;;;;;;;3.90;3.50;;;-1.80;99.90;;;;;;5074226;28;20428;-72
2021/01/25 01:56:07;;;;;;;4.53;3.80;;;-1.80;99.90;;;;;;5073954;28;20465;-72
2021/01/25 01:58:33;;;;;;;5.43;3.73;;;-1.80;99.90;;;;;;5074046;28;20434;-72
2021/01/25 02:01:00;;;;;;;4.37;3.87;;;-1.80;99.90;;;;;;5074150;28;20876;-72
2021/01/25 02:03:26;;;;;;;4.13;3.73;;;-1.80;99.90;;;;;;5073398;28;20460;-72
2021/01/25 02:05:54;;;;;;;3.53;3.23;;;-1.80;99.90;;;;;;5074078;28;20438;-72
2021/01/25 02:08:23;;;;;;;4.00;3.70;;;-1.80;99.90;;;;;;5073794;28;20445;-72
2021/01/25 02:10:53;;;;;;;4.17;3.27;;;-1.80;99.90;;;;;;5073381;28;20454;-72
2021/01/25 02:13:20;;;;;;;5.33;3.77;;;-1.90;99.90;;;;;;5073894;28;20864;-72
2021/01/25 02:15:47;;;;;;;3.70;3.17;;;-1.90;99.90;;;;;;5073733;28;20461;-72
2021/01/25 02:18:13;;;;;;;8.03;4.47;;;-1.90;99.90;;;;;;5073375;28;20456;-72
2021/01/25 02:20:42;;;;;;;4.57;4.07;;;-2.00;99.90;;;;;;5073640;28;20426;-72
2021/01/25 02:23:35;;;;;;;5.40;4.10;;;-1.90;99.90;;;;;;5073751;28;20422;-72
2021/01/25 02:26:08;;;;;;;4.07;3.63;;;-1.90;99.90;;;;;;5073496;28;20430;-72
2021/01/25 02:28:37;;;;;;;5.60;4.80;;;-1.90;99.90;;;;;;5073567;28;20430;-72
2021/01/25 02:31:07;;;;;;;4.20;3.80;;;-2.00;99.90;;;;;;5073328;28;20477;-72
2021/01/25 02:33:39;;;;;;;4.97;4.47;;;-2.00;99.90;;;;;;5072877;28;20787;-72
2021/01/25 02:36:06;;;;;;;5.23;4.57;;;-2.00;99.90;;;;;;5073022;28;20549;-72
2021/01/25 02:38:34;;;;;;;6.57;5.10;;;-2.10;99.90;;;;;;5072898;28;20443;-72
2021/01/25 02:41:02;;;;;;;5.40;4.90;;;-2.00;99.90;;;;;;5073311;28;20491;-72
2021/01/25 02:43:32;;;;;;;4.93;4.40;;;-2.00;99.90;;;;;;5073325;28;20434;-72
2021/01/25 02:46:00;;;;;;;3.93;3.53;;;-2.00;99.90;;;;;;5074201;28;20437;-72
2021/01/25 02:48:26;;;;;;;4.23;3.20;;;-2.10;99.90;;;;;;5073178;28;20422;-72
2021/01/25 02:50:53;;;;;;;6.17;4.33;;;-2.20;99.90;;;;;;5073067;28;20927;-73
2021/01/25 02:53:20;;;;;;;4.53;3.77;;;-2.20;99.90;;;;;;5073004;28;20430;-72
2021/01/25 02:55:48;;;;;;;3.57;3.23;;;-2.20;99.90;;;;;;5072767;28;20824;-72
2021/01/25 02:58:15;;;;;;;4.30;3.90;;;-2.20;99.90;;;;;;5073050;28;20433;-73
2021/01/25 03:00:43;;;;;;;3.80;3.50;;;-2.20;99.90;;;;;;5072794;28;20461;-72
2021/01/25 03:03:10;;;;;;;4.60;3.60;;;-2.30;99.90;;;;;;5072340;28;20911;-72
2021/01/25 03:05:37;;;;;;;2.70;2.50;;;-2.20;99.90;;;;;;5072923;28;20508;-72
2021/01/25 03:08:04;;;;;;;3.10;2.50;;;-2.20;99.90;;;;;;5072863;28;20437;-73
2021/01/25 03:10:31;;;;;;;2.53;2.00;;;-2.30;99.90;;;;;;5072401;28;20433;-72
2021/01/25 03:13:02;;;;;;;2.50;2.30;;;-2.30;99.90;;;;;;5072777;28;20429;-72
2021/01/25 03:15:30;;;;;;;3.00;2.70;;;-2.30;99.90;;;;;;5072328;28;20472;-73
2021/01/25 03:17:57;;;;;;;3.83;2.80;;;-2.40;99.90;;;;;;5072635;28;20445;-73
2021/01/25 03:20:24;;;;;;;2.50;2.30;;;-2.40;99.90;;;;;;5072521;28;20422;-73
2021/01/25 03:22:51;;;;;;;4.30;3.10;;;-2.50;99.90;;;;;;5072542;28;20430;-72
2021/01/25 03:25:18;;;;;;;3.60;3.10;;;-2.40;99.90;;;;;;5072238;28;20462;-73
2021/01/25 03:27:44;;;;;;;5.90;2.60;;;-2.40;99.90;;;;;;5071756;28;20422;-72
2021/01/25 03:30:13;;;;;;;3.87;3.57;;;-2.50;99.90;;;;;;5071951;28;20475;-72
2021/01/25 03:32:40;;;;;;;3.37;3.07;;;-2.50;99.90;;;;;;5071788;28;20438;-72
2021/01/25 03:35:09;;;;;;;3.80;3.30;;;-2.60;99.90;;;;;;5071356;28;20511;-72
2021/01/25 03:37:37;;;;;;;3.20;3.00;;;-2.50;99.90;;;;;;5072178;28;20440;-73
2021/01/25 03:40:06;;;;;;;3.93;3.53;;;-2.50;99.90;;;;;;5071825;28;20433;-72
2021/01/25 03:42:32;;;;;;;4.60;3.70;;;-2.60;99.90;;;;;;5078111;28;20437;-72
2021/01/25 03:44:59;;;;;;;3.97;3.53;;;-2.50;99.90;;;;;;5092186;28;20445;-72
2021/01/25 03:47:26;;;;;;;4.13;2.93;;;-2.50;99.90;;;;;;5073779;28;20784;-73
2021/01/25 03:49:52;;;;;;;3.83;3.30;;;-2.50;99.90;;;;;;5071934;28;20436;-73
2021/01/25 03:52:19;;;;;;;2.53;2.33;;;-2.50;99.90;;;;;;5071230;28;20450;-72
2021/01/25 03:54:47;;;;;;;3.83;2.50;;;-2.40;99.90;;;;;;5071730;28;20457;-72
2021/01/25 03:57:13;;;;;;;3.10;2.50;;;-2.40;99.90;;;;;;5071647;28;20462;-72
2021/01/25 03:59:40;;;;;;;4.30;2.20;;;-2.30;99.90;;;;;;5071784;28;20966;-73
2021/01/25 04:02:07;;;;;;;3.40;2.10;;;-2.30;99.90;;;;;;5071568;28;20426;-72
2021/01/25 04:04:33;;;;;;;2.60;2.40;;;-2.30;99.90;;;;;;5071078;28;20575;-72
2021/01/25 04:07:00;;;;;;;3.03;2.53;;;-2.30;99.90;;;;;;5071502;28;20432;-72
2021/01/25 04:09:26;;;;;;;2.40;2.20;;;-2.30;99.90;;;;;;5071433;28;20430;-72
2021/01/25 04:11:54;;;;;;;3.33;2.93;;;-2.20;99.90;;;;;;5071424;28;20445;-72
2021/01/25 04:14:21;;;;;;;4.07;2.60;;;-2.20;99.90;;;;;;5071489;28;20879;-72
2021/01/25 04:16:48;;;;;;;4.30;3.00;;;-2.20;99.90;;;;;;5071364;28;20469;-71
2021/01/25 04:19:14;;;;;;;2.47;2.27;;;-2.20;99.90;;;;;;5071405;28;20426;-72
2021/01/25 04:21:41;;;;;;;2.20;2.10;;;-2.10;99.90;;;;;;5071226;28;20869;-72
2021/01/25 04:24:08;;;;;;;5.00;2.63;;;-2.10;99.90;;;;;;5071319;28;20499;-72
2021/01/25 04:26:35;;;;;;;1.93;1.83;;;-2.10;99.90;;;;;;5071248;28;20437;-73
2021/01/25 04:29:02;;;;;;;2.30;2.10;;;-2.10;99.90;;;;;;5071323;28;20450;-73
2021/01/25 04:31:29;;;;;;;2.53;2.33;;;-2.00;99.90;;;;;;5071047;28;20430;-73
2021/01/25 04:33:55;;;;;;;1.60;1.50;;;-1.90;99.90;;;;;;5070634;28;20474;-72
2021/01/25 04:36:25;;;;;;;2.53;2.33;;;-1.90;99.90;;;;;;5071181;28;20469;-72
2021/01/25 04:38:52;;;;;;;4.10;3.60;;;-1.90;99.90;;;;;;5070716;28;20528;-72
2021/01/25 04:41:18;;;;;;;2.20;2.00;;;-1.80;99.90;;;;;;5070464;28;20422;-72
2021/01/25 04:43:46;;;;;;;2.83;2.63;;;-1.80;99.90;;;;;;5070547;28;20446;-72
2021/01/25 04:46:15;;;;;;;2.10;1.90;;;-1.80;99.90;;;;;;5071081;28;20925;-73
2021/01/25 04:48:45;;;;;;;2.60;2.40;;;-1.80;99.90;;;;;;5070947;28;20418;-72
2021/01/25 04:51:13;;;;;;;2.10;1.80;;;-1.90;99.90;;;;;;5070914;28;20821;-72
2021/01/25 04:53:40;;;;;;;3.67;2.87;;;-1.90;99.90;;;;;;5070648;28;20484;-72
2021/01/25 04:56:08;;;;;;;2.70;2.50;;;-1.90;99.90;;;;;;5070718;28;20501;-72
2021/01/25 04:58:36;;;;;;;3.00;2.70;;;-1.90;99.90;;;;;;5070784;28;20430;-73
2021/01/25 05:01:03;;;;;;;2.83;2.63;;;-1.90;99.90;;;;;;5070781;28;20430;-72
2021/01/25 05:03:31;;;;;;;3.53;2.90;;;-1.90;99.90;;;;;;5069380;28;20438;-72
2021/01/25 05:05:58;;;;;;;2.50;2.30;;;-1.90;99.90;;;;;;5070648;28;20841;-72
2021/01/25 05:08:24;;;;;;;2.90;2.70;;;-1.90;99.90;;;;;;5070545;28;20434;-72
2021/01/25 05:10:51;;;;;;;4.10;3.70;;;-1.90;99.90;;;;;;5070455;28;21138;-71
2021/01/25 05:13:22;;;;;;;3.63;2.40;;;-1.90;99.90;;;;;;5070690;28;20429;-71
2021/01/25 05:15:52;;;;;;;2.50;2.30;;;-1.90;99.90;;;;;;5070800;28;20468;-71
2021/01/25 05:18:22;;;;;;;3.40;3.20;;;-1.90;99.90;;;;;;5070337;28;20430;-73
2021/01/25 05:20:54;;;;;;;3.43;3.13;;;-1.90;99.90;;;;;;5070895;28;20482;-72
2021/01/25 05:23:20;;;;;;;2.90;2.70;;;-1.90;99.90;;;;;;5070808;28;20830;-72
2021/01/25 05:25:47;;;;;;;3.63;2.67;;;-1.90;99.90;;;;;;5070526;28;20452;-72
2021/01/25 05:28:15;;;;;;;3.30;3.10;;;-1.90;99.90;;;;;;5071212;28;20464;-72
2021/01/25 05:30:42;;;;;;;2.67;2.40;;;-1.80;99.90;;;;;;5070370;28;20559;-71
2021/01/25 05:33:09;;;;;;;3.97;3.57;;;-1.80;99.90;;;;;;5070033;28;20422;-73
2021/01/25 05:35:36;;;;;;;3.83;3.53;;;-1.80;99.90;;;;;;5069981;28;20454;-72
2021/01/25 05:38:05;;;;;;;3.50;3.20;;;-1.80;99.90;;;;;;5070491;28;20445;-72
2021/01/25 05:40:33;;;;;;;4.10;3.70;;;-1.80;99.90;;;;;;5070247;28;20444;-71
2021/01/25 05:43:01;;;;;;;3.87;3.27;;;-1.80;99.90;;;;;;5069814;28;21167;-71
2021/01/25 05:45:29;;;;;;;2.73;2.53;;;-1.90;99.90;;;;;;5070195;28;20644;-70
2021/01/25 05:47:58;;;;;;;3.83;3.43;;;-1.80;99.90;;;;;;5070382;28;20426;-71
2021/01/25 05:50:31;;;;;;;3.20;2.90;;;-1.90;99.90;;;;;;5070218;28;20757;-71
2021/01/25 05:52:59;;;;;;;5.67;4.00;;;-1.90;99.90;;;;;;5070402;28;20768;-72
2021/01/25 05:55:27;;;;;;;6.60;5.90;;;-1.90;99.90;;;;;;5069887;28;20466;-72
2021/01/25 05:57:54;;;;;;;5.27;4.67;;;-1.90;99.90;;;;;;5070303;28;20430;-71
2021/01/25 06:00:22;;;;;;;3.80;3.40;;;-1.80;99.90;;;;;;5070330;28;20422;-72
2021/01/25 06:02:53;;;;;;;5.23;4.13;;;-1.80;99.90;;;;;;5070167;28;20499;-71
2021/01/25 06:05:35;;;;;;;4.00;3.60;;;-1.80;99.90;;;;;;5069441;28;20462;-71
2021/01/25 06:08:14;;;;;;;5.43;4.30;;;-1.80;99.90;;;;;;5067619;28;20445;-71
2021/01/25 06:10:48;;;;;;;6.43;5.20;;;-1.80;99.90;;;;;;5069940;28;20422;-71
2021/01/25 06:13:18;;;;;;;4.00;3.47;;;-1.80;99.90;;;;;;5070256;28;20426;-72
2021/01/25 06:15:48;;;;;;;5.03;4.50;;;-1.80;99.90;;;;;;5073601;28;20480;-71
2021/01/25 06:18:18;;;;;;;7.07;5.40;;;-1.80;99.90;;;;;;5073762;28;20426;-71
2021/01/25 06:20:46;;;;;;;4.30;3.70;;;-1.80;99.90;;;;;;5073513;28;20426;-72
2021/01/25 06:23:14;;;;;;;4.43;4.10;;;-1.80;99.90;;;;;;5073960;28;20449;-72
2021/01/25 06:25:41;;;;;;;3.80;3.40;;;-1.70;99.90;;;;;;5073360;28;20456;-72
2021/01/25 06:28:14;;;;;;;2.00;1.90;;;-1.70;99.90;;;;;;5073535;28;20429;-73
2021/01/25 06:30:44;;;;;;;4.10;3.73;;;-1.70;99.90;;;;;;5072452;28;20935;-72
2021/01/25 06:33:15;;;;;;;5.33;4.77;;;-1.60;99.90;;;;;;5072063;28;20947;-72
2021/01/25 06:35:42;;;;;;;5.17;4.33;;;-1.70;99.90;;;;;;5073202;28;20520;-72
2021/01/25 06:38:14;;;;;;;6.47;5.07;;;-1.60;99.90;;;;;;5072581;28;20442;-72
2021/01/25 06:40:43;;;;;;;4.70;4.17;;;-1.60;99.90;;;;;;5073151;28;20448;-72
2021/01/25 06:43:13;;;;;;;6.03;4.30;;;-1.60;99.90;;;;;;5073253;28;20442;-72
2021/01/25 06:45:41;;;;;;;3.23;2.93;;;-1.60;99.90;;;;;;5073408;28;20449;-72
2021/01/25 06:48:10;;;;;;;4.07;3.67;;;-1.60;99.90;;;;;;5073375;28;20422;-71
2021/01/25 06:50:37;;;;;;;2.90;2.57;;;-1.50;99.90;;;;;;5073059;28;20795;-73
2021/01/25 06:53:04;;;;;;;3.13;2.70;;;-1.50;99.90;;;;;;5072809;28;20442;-72
2021/01/25 06:55:33;;;;;;;2.20;2.00;;;-1.50;99.90;;;;;;5073049;28;20861;-72
2021/01/25 06:58:05;;;;;;;2.70;2.30;;;-1.50;99.90;;;;;;5073072;28;20429;-71
2021/01/25 07:00:34;;;;;;;3.83;3.53;;;-1.50;99.90;;;;;;5072774;28;20495;-68
2021/01/25 07:03:03;;;;;;;2.80;2.50;;;-1.50;99.90;;;;;;5072356;28;20757;-68
2021/01/25 07:05:31;;;;;;;4.10;3.70;;;-1.40;99.90;;;;;;5072427;28;20803;-67
2021/01/25 07:08:17;;;;;;;3.23;3.03;;;-1.30;99.90;;;;;;5072885;28;20448;-68
2021/01/25 07:10:54;;;;;;;3.83;3.20;;;-1.20;99.90;;;;;;5076479;28;20455;-68
2021/01/25 07:13:22;;;;;;;3.70;3.40;;;-1.20;99.90;;;;;;5092870;28;20490;-68
2021/01/25 07:15:50;;;;;;;2.77;2.57;;;-1.20;99.90;;;;;;5092976;28;20460;-68
2021/01/25 07:18:18;;;;;;;3.17;2.87;;;-1.20;99.90;;;;;;5092719;28;20427;-68
2021/01/25 07:20:48;;;;;;;4.60;2.43;;;-1.20;99.90;;;;;;5078963;28;20445;-68
2021/01/25 07:23:17;;;;;;;6.03;4.27;;;-1.20;99.90;;;;;;5072414;28;20934;-68
2021/01/25 07:25:46;;;;;;;3.27;3.00;;;-1.20;99.90;;;;;;5071003;28;20458;-68
2021/01/25 07:28:13;;;;;;;3.10;2.77;;;-1.20;99.90;;;;;;5072309;28;20437;-69
2021/01/25 07:30:40;;;;;;;4.07;3.40;;;-1.20;99.90;;;;;;5071400;28;20430;-68
2021/01/25 07:33:07;;;;;;;2.27;2.07;;;-1.30;99.90;;;;;;5071089;28;21179;-68
2021/01/25 07:35:34;;;;;;;2.70;2.50;;;-1.30;99.90;;;;;;5068440;28;20446;-68
2021/01/25 07:38:03;;;;;;;2.10;1.90;;;-1.20;99.90;;;;;;5072213;28;21158;-68
2021/01/25 07:40:30;;;;;;;3.10;2.80;;;-1.20;99.90;;;;;;5072057;28;20466;-68
2021/01/25 07:42:57;;;;;;;4.00;2.80;;;-1.20;99.90;;;;;;5071459;28;20988;-68
2021/01/25 07:45:24;;;;;;;2.57;2.37;;;-1.20;99.90;;;;;;5071722;28;20446;-68
2021/01/25 07:47:51;;;;;;;4.00;2.40;;;-1.20;99.90;;;;;;5071198;28;20430;-68
2021/01/25 07:50:19;;;;;;;1.73;1.63;;;-1.20;99.90;;;;;;5072000;28;20425;-69
2021/01/25 07:52:56;;;;;;;2.43;1.97;;;-1.20;99.90;;;;;;5071771;28;20457;-68
2021/01/25 07:55:23;;;;;;;2.00;1.90;;;-1.10;99.90;;;;;;5071921;28;20437;-68
2021/01/25 07:57:49;;;;;;;2.13;1.70;;;-1.10;99.90;;;;;;5071036;28;20461;-67
2021/01/25 08:00:23;;;;;;;1.90;1.80;;;-1.20;99.90;;;;;;5071800;28;20437;-68
2021/01/25 08:02:56;;;;;;;1.70;1.60;;;-1.10;99.90;;;;;;5071436;28;20946;-68
2021/01/25 08:05:25;;;;;;;1.30;1.10;;;-1.20;99.90;;;;;;5071370;28;20469;-68
2021/01/25 08:07:54;;;;;;;2.40;2.20;;;-1.20;99.90;;;;;;5070937;28;20456;-68
2021/01/25 08:10:21;;;;;;;2.00;1.90;;;-1.20;99.90;;;;;;5071871;28;20426;-68
2021/01/25 08:12:48;;;;;;;1.80;1.70;;;-1.20;99.90;;;;;;5071278;28;20513;-68
2021/01/25 08:15:23;;;;;;;2.50;2.37;;;-1.20;99.90;;;;;;5071458;28;20450;-68
2021/01/25 08:17:55;;;;;;;1.43;1.20;;;-1.10;99.90;;;;;;5070799;28;20480;-68
2021/01/25 08:20:24;;;;;;;0.90;0.90;;;-1.10;99.90;;;;;;5071552;28;20422;-68
2021/01/25 08:22:55;;;;;;;1.60;1.50;;;-1.10;99.90;;;;;;5071188;28;20540;-69
2021/01/25 08:25:26;;;;;;;1.73;1.63;;;-1.10;99.90;;;;;;5071643;28;20450;-70
2021/01/25 08:27:59;;;;;;;1.37;1.27;;;-1.20;99.90;;;;;;5071308;28;20911;-69
2021/01/25 08:30:34;;;;;;;2.20;2.00;;;-1.20;99.90;;;;;;5070795;28;20446;-69
2021/01/25 08:33:02;;;;;;;1.87;1.10;;;-1.10;99.90;;;;;;5070506;28;20911;-70
2021/01/25 08:35:34;;;;;;;1.43;1.27;;;-1.10;99.90;;;;;;5071169;28;20558;-70
2021/01/25 08:38:21;;;;;;;2.00;1.20;;;-1.20;99.90;;;;;;5070097;28;20931;-69
2021/01/25 08:40:48;;;;;;;6.40;1.67;;;-1.10;99.90;;;;;;5054941;28;20442;-69
2021/01/25 08:43:20;;;;;;;1.30;1.20;;;-1.20;99.90;;;;;;5070431;28;20962;-68
2021/01/25 08:45:48;;;;;;;1.37;1.27;;;-1.20;99.90;;;;;;5070723;28;20456;-69
2021/01/25 08:48:15;;;;;;;1.07;0.97;;;-1.20;99.90;;;;;;5071051;28;20422;-69
2021/01/25 08:50:42;;;;;;;1.13;1.03;;;-1.30;99.90;;;;;;5070765;28;20969;-70
2021/01/25 08:53:15;;;;;;;1.03;0.93;;;-1.30;99.90;;;;;;5070942;28;20414;-69
2021/01/25 08:55:43;;;;;;;1.20;1.10;;;-1.30;99.90;;;;;;5070949;28;20485;-70
2021/01/25 08:58:18;;;;;;;1.33;1.17;;;-1.40;99.90;;;;;;5071079;28;20830;-70
2021/01/25 09:00:48;;;;;;;6.23;1.40;;;-1.30;99.90;;;;;;5070478;28;20452;-69
2021/01/25 09:03:17;;;;;;;2.90;1.10;;;-1.30;99.90;;;;;;5069520;28;20955;-69
2021/01/25 09:05:44;;;;;;;1.13;1.03;;;-1.30;99.90;;;;;;5070785;28;20886;-69
2021/01/25 09:08:11;;;;;;;1.40;1.30;;;-1.20;99.90;;;;;;5070797;28;20466;-70
2021/01/25 09:10:37;;;;;;;2.07;1.87;;;-1.30;99.90;;;;;;5070681;28;20438;-70
2021/01/25 09:13:04;;;;;;;2.33;1.07;;;-1.30;99.90;;;;;;5070955;28;20841;-69
2021/01/25 09:15:31;;;;;;;3.93;1.40;;;-1.30;99.90;;;;;;5072051;28;20453;-70
2021/01/25 09:17:59;;;;;;;12.40;1.97;;;-1.30;99.90;;;;;;5070546;28;20811;-70
2021/01/25 09:20:27;;;;;;;1.37;1.27;;;-1.30;99.90;;;;;;5070576;28;20445;-70
2021/01/25 09:22:53;;;;;;;1.60;1.50;;;-1.20;99.90;;;;;;5070766;28;20938;-69
2021/01/25 09:25:21;;;;;;;6.10;1.83;;;-1.20;99.90;;;;;;5071866;28;20453;-68
2021/01/25 09:27:48;;;;;;;1.40;1.30;;;-1.20;99.90;;;;;;5078052;28;20437;-69
2021/01/25 09:30:17;;;;;;;1.43;1.33;;;-1.20;99.90;;;;;;5090489;28;20429;-68
2021/01/25 09:32:44;;;;;;;2.93;1.70;;;-1.10;99.90;;;;;;5081712;28;20465;-68
2021/01/25 09:35:13;;;;;;;1.30;1.20;;;-1.00;99.90;;;;;;5069497;28;20511;-68
2021/01/25 09:37:42;;;;;;;2.23;2.03;;;-1.00;99.90;;;;;;5070435;28;20481;-68
2021/01/25 09:40:11;;;;;;;2.13;1.90;;;-0.90;99.90;;;;;;5070433;28;20984;-68
2021/01/25 09:42:38;;;;;;;1.53;1.30;;;-0.80;99.90;;;;;;5070079;28;20537;-68
2021/01/25 09:45:06;;;;;;;3.10;2.10;;;-0.80;99.90;;;;;;5050220;28;20453;-68
2021/01/25 09:47:32;;;;;;;1.00;0.90;;;-0.80;99.90;;;;;;5050498;28;20435;-69
2021/01/25 09:49:59;;;;;;;1.30;1.20;;;-0.80;99.90;;;;;;5052936;28;20425;-68
2021/01/25 09:52:26;;;;;;;1.97;1.60;;;-0.60;99.90;;;;;;5054251;28;20504;-68
2021/01/25 09:54:53;;;;;;;1.60;1.50;;;-0.60;99.90;;;;;;5058254;28;20822;-68
2021/01/25 09:57:20;;;;;;;4.83;1.53;;;-0.60;99.90;;;;;;5074169;28;20465;-69
2021/01/25 09:59:47;;;;;;;1.53;1.43;;;-0.50;99.90;;;;;;5073945;28;21121;-68
2021/01/25 10:02:13;;;;;;;0.80;0.80;;;-0.50;99.90;;;;;;5073502;28;20445;-69
2021/01/25 10:04:41;;;;;;;2.00;1.73;;;-0.60;99.90;;;;;;5068885;28;20492;-68
2021/01/25 10:07:08;;;;;;;2.40;1.80;;;-0.50;99.90;;;;;;5073983;28;20450;-69
2021/01/25 10:09:35;;;;;;;1.77;1.47;;;-0.50;99.90;;;;;;5073672;28;20429;-68
2021/01/25 10:12:02;;;;;;;3.33;2.50;;;-0.50;99.90;;;;;;5073519;28;20434;-69
2021/01/25 10:14:29;;;;;;;1.93;1.53;;;-0.50;99.90;;;;;;5073764;28;20461;-69
2021/01/25 10:16:56;;;;;;;3.40;1.70;;;-0.60;99.90;;;;;;5073156;28;20496;-68
2021/01/25 10:19:22;;;;;;;3.00;1.70;;;-0.60;99.90;;;;;;5053791;28;20442;-69
2021/01/25 10:21:52;;;;;;;1.47;1.37;;;-0.60;99.90;;;;;;5055072;28;20434;-68
2021/01/25 10:24:18;;;;;;;1.40;1.23;;;-0.60;99.90;;;;;;5053194;28;20959;-69
2021/01/25 10:26:45;;;;;;;2.90;1.70;;;-0.60;99.90;;;;;;5054020;28;20418;-69
2021/01/25 10:29:12;;;;;;;4.43;2.43;;;-0.60;99.90;;;;;;5059231;28;20438;-69
2021/01/25 10:31:39;;;;;;;1.60;1.37;;;-0.60;99.90;;;;;;5073396;28;20437;-69
2021/01/25 10:34:06;;;;;;;2.13;1.73;;;-0.70;99.90;;;;;;5074907;28;20487;-69
2021/01/25 10:36:32;;;;;;;3.07;1.67;;;-0.70;99.90;;;;;;5073349;28;20465;-69
2021/01/25 10:38:59;;;;;;;2.50;1.20;;;-0.70;99.90;;;;;;5072506;28;20796;-69
2021/01/25 10:41:26;;;;;;;5.00;1.40;;;-0.70;99.90;;;;;;5073043;28;21165;-69
2021/01/25 10:43:52;;;;;;;1.83;1.63;;;-0.70;99.90;;;;;;5073340;28;20519;-69
2021/01/25 10:46:26;;;;;;;1.67;1.43;;;-0.70;99.90;;;;;;5073511;28;20446;-69
2021/01/25 10:48:53;;;;;;;1.50;1.40;;;-0.70;99.90;;;;;;5073404;28;20422;-69
2021/01/25 10:51:19;;;;;;;3.50;1.53;;;-0.50;99.90;;;;;;5073072;28;20437;-69
2021/01/25 10:53:46;;;;;;;1.43;1.13;;;-0.60;99.90;;;;;;5072114;28;20473;-68
2021/01/25 10:56:13;;;;;;;7.03;1.57;;;-0.50;99.90;;;;;;5073084;28;20462;-68
2021/01/25 10:58:39;;;;;;;2.07;1.50;;;-0.50;99.90;;;;;;5073194;28;20430;-68
2021/01/25 11:01:07;;;;;;;3.50;1.57;;;-0.40;99.90;;;;;;5071689;28;20472;-68
2021/01/25 11:03:36;;;;;;;1.80;1.70;;;-0.30;99.90;;;;;;5071387;28;20446;-68
2021/01/25 11:06:03;;;;;;;2.00;1.53;;;0.00;99.90;;;;;;5073085;28;20814;-69
2021/01/25 11:08:30;;;;;;;2.07;1.70;;;0.10;99.90;;;;;;5072695;28;20422;-68
2021/01/25 11:10:56;;;;;;;1.63;1.40;;;0.30;99.90;;;;;;5072794;28;20542;-68
2021/01/25 11:13:23;;;;;;;1.60;1.33;;;0.30;99.90;;;;;;5072801;28;20422;-68
2021/01/25 11:15:50;;;;;;;2.13;1.53;;;0.30;99.90;;;;;;5073699;28;20443;-68
2021/01/25 11:18:23;;;;;;;1.40;1.30;;;0.30;99.90;;;;;;5092675;28;20448;-67
2021/01/25 11:20:51;;;;;;;2.00;1.20;;;0.50;99.90;;;;;;5074057;28;20437;-68
2021/01/25 11:23:17;;;;;;;1.63;1.50;;;0.60;99.90;;;;;;5081172;28;20418;-67
2021/01/25 11:26:23;;;;;;;3.63;1.53;;;0.60;99.90;;;;;;5082702;28;20455;-68
2021/01/25 11:28:50;;;;;;;3.03;0.93;;;0.50;99.90;;;;;;5072496;28;20459;-68
2021/01/25 11:31:17;;;;;;;2.30;1.40;;;0.50;99.90;;;;;;5072237;28;20426;-68
2021/01/25 11:33:43;;;;;;;1.57;1.00;;;0.60;99.90;;;;;;5070637;28;20442;-69
2021/01/25 11:36:11;;;;;;;1.20;1.10;;;0.50;99.90;;;;;;5072315;28;20509;-69
2021/01/25 11:38:37;;;;;;;1.60;1.20;;;0.50;99.90;;;;;;5071610;28;20458;-68
2021/01/25 11:41:18;;;;;;;1.50;1.30;;;0.60;99.90;;;;;;5072166;28;20785;-68
2021/01/25 11:43:45;;;;;;;2.43;1.33;;;0.70;99.90;;;;;;5071583;28;21032;-67
2021/01/25 11:46:12;;;;;;;3.30;1.60;;;0.80;99.90;;;;;;5072234;28;20425;-68
2021/01/25 11:48:39;;;;;;;1.97;1.30;;;1.00;99.90;;;;;;5071601;28;20417;-68
2021/01/25 11:51:05;;;;;;;2.10;1.87;;;1.30;99.90;;;;;;5072078;28;20437;-66
2021/01/25 11:53:33;;;;;;;9.07;1.40;;;1.40;99.90;;;;;;5071818;28;20427;-67
2021/01/25 11:55:59;;;;;;;1.80;1.50;;;1.40;99.90;;;;;;5072275;28;20449;-67
2021/01/25 11:58:27;;;;;;;1.43;1.33;;;1.20;99.90;;;;;;5071598;28;20426;-67
2021/01/25 12:00:54;;;;;;;3.27;2.60;;;1.20;99.90;;;;;;5071837;28;20443;-66
2021/01/25 12:03:20;;;;;;;1.30;1.20;;;1.20;99.90;;;;;;5070306;28;20819;-66
2021/01/25 12:05:47;;;;;;;1.67;1.57;;;1.20;99.90;;;;;;5071587;28;20445;-66
2021/01/25 12:08:13;;;;;;;4.13;1.30;;;1.20;99.90;;;;;;5071724;28;20438;-66
2021/01/25 12:10:44;;;;;;;1.67;1.30;;;1.40;99.90;;;;;;5071412;28;20524;-65
2021/01/25 12:13:10;;;;;;;2.13;1.93;;;1.30;99.90;;;;;;5071301;28;20426;-65
2021/01/25 12:15:37;;;;;;;1.37;1.20;;;1.10;99.90;;;;;;5070272;28;20482;-65
2021/01/25 12:18:04;;;;;;;3.50;1.27;;;0.90;99.90;;;;;;5071453;28;20497;-65
2021/01/25 12:20:31;;;;;;;2.30;1.20;;;0.90;99.90;;;;;;5071281;28;20422;-65
2021/01/25 12:22:57;;;;;;;1.53;1.43;;;0.80;99.90;;;;;;5070780;28;20426;-65
2021/01/25 12:25:24;;;;;;;1.37;1.20;;;0.80;99.90;;;;;;5071395;28;20446;-65
2021/01/25 12:27:53;;;;;;;1.33;1.23;;;0.80;99.90;;;;;;5071416;28;20431;-65
2021/01/25 12:30:20;;;;;;;2.50;1.13;;;0.80;99.90;;;;;;5071292;28;20426;-66
2021/01/25 12:32:47;;;;;;;1.20;1.10;;;0.90;99.90;;;;;;5070744;28;20441;-66
2021/01/25 12:35:15;;;;;;;1.90;1.50;;;0.90;99.90;;;;;;5070707;28;20457;-65
2021/01/25 12:37:44;;;;;;;2.87;1.50;;;0.90;99.90;;;;;;5071096;28;20532;-65
2021/01/25 12:40:12;;;;;;;3.93;1.20;;;0.80;99.90;;;;;;5069987;28;20458;-65
2021/01/25 12:42:39;;;;;;;1.50;1.40;;;0.90;99.90;;;;;;5070844;28;20445;-65
2021/01/25 12:45:09;;;;;;;1.87;1.50;;;0.80;99.90;;;;;;5071146;28;20446;-65
2021/01/25 12:47:36;;;;;;;1.40;1.30;;;0.80;99.90;;;;;;5071134;28;20430;-65
2021/01/25 12:50:03;;;;;;;1.77;1.30;;;0.60;99.90;;;;;;5071148;28;20422;-66
2021/01/25 12:52:30;;;;;;;1.50;1.40;;;0.60;99.90;;;;;;5070683;28;20426;-65